Time;durP1;ratioP1;P1;durP2;ratioP2;P2;SDS_P1;SDS_P2;PMS_P1;PMS_P2;Temp;Humidity;BMP_temperature;BMP_pressure;BME280_temperature;BME280_humidity;BME280_pressure;Samples;Min_cycle;Max_cycle;Signal;HPM_P1;HPM_P2
2023/03/06 00:02:14;;;;;;;;;44.75;35.00;;;;;8.47;48.97;100596.88;5016912;28;45278;-70
2023/03/06 00:04:40;;;;;;;;;47.50;38.25;;;;;8.44;48.80;100595.09;5016948;28;45293;-71
2023/03/06 00:07:05;;;;;;;;;40.00;36.50;;;;;8.44;48.74;100595.09;5015045;28;56084;-70
2023/03/06 00:09:30;;;;;;;;;47.50;35.50;;;;;8.38;48.95;100583.81;5016641;28;45287;-70
2023/03/06 00:11:55;;;;;;;;;44.50;35.50;;;;;8.44;49.11;100596.88;5015403;28;45290;-71
2023/03/06 00:14:21;;;;;;;;;51.25;37.00;;;;;8.40;49.08;100589.91;5010406;28;45482;-70
2023/03/06 00:16:46;;;;;;;;;40.25;36.75;;;;;8.44;49.06;100597.72;5003030;28;45630;-70
2023/03/06 00:19:11;;;;;;;;;50.25;42.25;;;;;8.44;49.08;100602.09;5016414;28;47097;-70
2023/03/06 00:21:39;;;;;;;;;47.25;40.25;;;;;8.39;49.20;100594.28;5016589;28;45336;-70
2023/03/06 00:24:05;;;;;;;;;49.00;39.25;;;;;8.40;49.27;100582.94;5009048;28;45625;-70
2023/03/06 00:26:30;;;;;;;;;47.50;38.00;;;;;8.35;49.04;100575.97;5002762;28;45207;-70
2023/03/06 00:28:56;;;;;;;;;41.75;34.00;;;;;8.37;49.36;100584.69;5016305;28;45288;-70
2023/03/06 00:31:21;;;;;;;;;41.75;33.25;;;;;8.35;49.15;100581.22;5016379;28;45228;-70
2023/03/06 00:33:47;;;;;;;;;39.00;34.25;;;;;8.33;49.39;100581.22;5015103;28;47384;-70
2023/03/06 00:36:12;;;;;;;;;41.75;35.00;;;;;8.30;49.32;100579.50;5016222;28;45551;-70
2023/03/06 00:38:37;;;;;;;;;45.75;33.25;;;;;8.28;49.32;100573.41;5016347;28;45661;-71
2023/03/06 00:41:10;;;;;;;;;39.50;34.00;;;;;8.29;49.15;100571.66;5015979;28;45291;-70
2023/03/06 00:43:35;;;;;;;;;41.75;33.25;;;;;8.28;49.28;100575.16;5016367;28;45367;-71
2023/03/06 00:46:01;;;;;;;;;39.00;33.75;;;;;8.26;49.25;100574.28;5015902;28;45416;-70
2023/03/06 00:48:26;;;;;;;;;38.00;34.25;;;;;8.26;49.17;100575.19;5015978;28;45595;-70
2023/03/06 00:50:52;;;;;;;;;44.00;35.75;;;;;8.24;49.31;100565.59;5015644;28;45230;-70
2023/03/06 00:53:17;;;;;;;;;41.25;36.75;;;;;8.25;49.14;100572.53;5016377;28;45352;-70
2023/03/06 00:55:44;;;;;;;;;37.00;32.25;;;;;8.17;49.20;100558.66;5015727;28;54268;-70
2023/03/06 00:58:10;;;;;;;;;38.50;33.00;;;;;8.23;49.26;100572.56;5016121;28;45399;-70
2023/03/06 01:00:36;;;;;;;;;38.50;34.50;;;;;8.22;49.08;100567.34;5015800;28;45431;-70
2023/03/06 01:03:01;;;;;;;;;34.00;29.00;;;;;8.22;49.48;100567.34;5016228;28;45344;-70
2023/03/06 01:05:26;;;;;;;;;40.75;34.25;;;;;8.21;49.05;100566.47;5015965;28;45496;-70
2023/03/06 01:07:52;;;;;;;;;39.50;34.00;;;;;8.21;49.54;100568.22;5015795;28;45320;-70
2023/03/06 01:10:17;;;;;;;;;41.25;35.50;;;;;8.19;49.26;100569.97;5018394;28;45293;-70
2023/03/06 01:12:43;;;;;;;;;40.50;35.75;;;;;8.19;49.17;100562.13;5017392;28;45430;-70
2023/03/06 01:15:10;;;;;;;;;46.25;36.00;;;;;8.18;49.18;100565.63;5007269;28;45481;-70
2023/03/06 01:17:35;;;;;;;;;44.50;37.00;;;;;8.16;49.27;100560.38;5012360;28;46370;-70
2023/03/06 01:20:01;;;;;;;;;33.25;33.00;;;;;8.18;49.42;100560.41;5011193;28;45248;-70
2023/03/06 01:22:26;;;;;;;;;38.25;31.25;;;;;8.12;49.17;100559.53;5012361;28;45791;-71
2023/03/06 01:24:51;;;;;;;;;31.75;28.00;;;;;8.13;49.38;100557.81;5005223;28;45623;-70
2023/03/06 01:27:16;;;;;;;;;31.00;26.75;;;;;8.08;48.93;100549.97;5009883;28;48261;-70
2023/03/06 01:29:42;;;;;;;;;33.00;27.25;;;;;8.12;49.19;100559.53;5018526;28;45266;-70
2023/03/06 01:32:07;;;;;;;;;33.75;30.25;;;;;8.08;49.07;100552.59;5019225;28;45182;-70
2023/03/06 01:34:32;;;;;;;;;32.50;30.00;;;;;8.07;48.98;100547.38;5018504;28;47061;-70
2023/03/06 01:36:58;;;;;;;;;40.25;31.75;;;;;8.06;48.90;100546.53;5018844;28;45334;-70
2023/03/06 01:39:23;;;;;;;;;38.50;33.75;;;;;8.05;49.24;100542.16;5017176;28;45489;-70
2023/03/06 01:41:49;;;;;;;;;36.25;33.00;;;;;8.07;48.92;100545.63;5018785;28;45335;-70
2023/03/06 01:44:14;;;;;;;;;33.50;31.50;;;;;8.07;48.80;100539.53;5018297;28;45620;-70
2023/03/06 01:46:44;;;;;;;;;42.50;33.75;;;;;8.04;49.00;100539.56;5017088;28;45847;-70
2023/03/06 01:49:24;;;;;;;;;44.25;36.25;;;;;8.07;48.85;100545.63;5018410;28;45270;-70
2023/03/06 01:52:02;;;;;;;;;46.75;34.75;;;;;8.06;48.84;100533.44;5018673;28;45361;-70
2023/03/06 01:54:34;;;;;;;;;35.25;31.25;;;;;8.01;49.14;100529.94;5018544;28;45587;-70
2023/03/06 01:57:05;;;;;;;;;34.00;29.75;;;;;7.99;49.23;100534.34;5018438;28;45499;-70
2023/03/06 01:59:34;;;;;;;;;37.00;31.25;;;;;8.01;48.86;100535.19;5018588;28;45280;-70
2023/03/06 02:02:01;;;;;;;;;38.50;34.00;;;;;8.00;48.99;100536.09;5018466;28;45458;-70
2023/03/06 02:04:27;;;;;;;;;39.75;35.00;;;;;8.00;48.88;100527.34;5018478;28;45394;-70
2023/03/06 02:06:54;;;;;;;;;43.25;36.00;;;;;8.01;48.95;100534.34;5033580;28;47912;-69
2023/03/06 02:09:19;;;;;;;;;36.25;29.25;;;;;8.02;49.15;100533.47;5018313;28;45279;-69
2023/03/06 02:11:45;;;;;;;;;44.00;35.25;;;;;7.97;49.14;100534.38;5018399;28;45153;-70
2023/03/06 02:14:13;;;;;;;;;43.50;33.50;;;;;7.98;48.98;100532.59;5014634;28;45173;-70
2023/03/06 02:16:40;;;;;;;;;31.00;28.75;;;;;7.93;49.20;100530.00;5001621;28;47955;-70
2023/03/06 02:19:13;;;;;;;;;36.25;27.25;;;;;7.91;49.04;100523.06;5018300;28;45367;-70
2023/03/06 02:21:38;;;;;;;;;33.75;31.25;;;;;7.90;49.24;100526.53;5018336;28;45389;-70
2023/03/06 02:24:11;;;;;;;;;29.25;24.75;;;;;7.90;48.90;100524.81;5022796;28;45482;-70
2023/03/06 02:26:39;;;;;;;;;36.25;32.25;;;;;7.90;48.89;100527.44;4991257;28;48332;-70
2023/03/06 02:29:07;;;;;;;;;31.00;26.00;;;;;7.88;48.87;100526.56;5017760;28;45496;-70
2023/03/06 02:31:33;;;;;;;;;34.50;28.00;;;;;7.85;48.95;100521.38;5016966;28;45345;-70
2023/03/06 02:34:18;;;;;;;;;36.50;29.25;;;;;7.83;49.00;100510.03;5018055;28;45507;-70
2023/03/06 02:36:47;;;;;;;;;31.75;27.50;;;;;7.81;48.73;100507.44;5013866;28;45219;-70
2023/03/06 02:39:14;;;;;;;;;30.75;27.50;;;;;7.79;48.96;100505.69;5017766;28;45455;-70
2023/03/06 02:41:39;;;;;;;;;30.50;26.75;;;;;7.76;48.74;100501.38;5018110;28;45464;-70
2023/03/06 02:44:05;;;;;;;;;30.50;29.25;;;;;7.75;48.82;100490.91;5016324;28;45509;-70
2023/03/06 02:46:30;;;;;;;;;38.75;29.00;;;;;7.72;48.90;100493.53;5017742;28;45309;-70
2023/03/06 02:48:56;;;;;;;;;30.00;24.50;;;;;7.71;48.85;100491.78;5016538;28;45550;-70
2023/03/06 02:51:21;;;;;;;;;37.50;27.50;;;;;7.68;48.44;100487.44;5018051;28;45521;-69
2023/03/06 02:53:47;;;;;;;;;32.50;28.25;;;;;7.70;48.62;100493.56;5017785;28;45404;-69
2023/03/06 02:56:12;;;;;;;;;30.00;26.75;;;;;7.66;48.71;100484.00;5017760;28;45409;-70
2023/03/06 02:58:38;;;;;;;;;31.50;25.75;;;;;7.69;48.63;100490.94;5017680;28;45270;-69
2023/03/06 03:01:04;;;;;;;;;32.25;26.50;;;;;7.68;48.86;100486.59;5016455;28;45411;-69
2023/03/06 03:03:29;;;;;;;;;32.00;26.75;;;;;7.69;48.72;100488.34;5016317;28;45407;-69
2023/03/06 03:05:55;;;;;;;;;33.75;29.25;;;;;7.63;48.73;100481.38;5032926;28;47601;-69
2023/03/06 03:08:21;;;;;;;;;33.75;31.50;;;;;7.58;48.76;100465.72;5017599;28;45249;-69
2023/03/06 03:10:46;;;;;;;;;30.25;25.50;;;;;7.61;48.55;100468.31;5016333;28;45390;-69
2023/03/06 03:13:12;;;;;;;;;35.75;27.75;;;;;7.61;48.68;100467.44;5017670;28;45533;-69
2023/03/06 03:15:37;;;;;;;;;38.25;32.50;;;;;7.62;48.55;100466.56;5001892;28;45385;-69
2023/03/06 03:18:02;;;;;;;;;30.00;25.50;;;;;7.60;48.66;100470.94;5013711;28;45469;-69
2023/03/06 03:20:28;;;;;;;;;33.50;26.25;;;;;7.58;48.55;100467.47;5017592;28;46033;-69
2023/03/06 03:22:54;;;;;;;;;33.25;27.50;;;;;7.57;48.60;100473.56;5015727;28;45547;-69
2023/03/06 03:25:21;;;;;;;;;34.50;30.50;;;;;7.54;48.45;100464.00;4999493;28;45397;-69
2023/03/06 03:27:47;;;;;;;;;32.00;28.00;;;;;7.56;48.64;100464.88;5014088;28;45350;-69
2023/03/06 03:30:13;;;;;;;;;36.25;30.00;;;;;7.58;48.58;100463.09;5017241;28;45268;-69
2023/03/06 03:32:38;;;;;;;;;47.00;34.50;;;;;7.58;48.69;100462.25;5016256;28;45456;-69
2023/03/06 03:35:05;;;;;;;;;33.50;30.00;;;;;7.58;48.82;100462.25;5017300;28;45204;-69
2023/03/06 03:37:30;;;;;;;;;34.50;29.75;;;;;7.54;48.63;100455.28;5017142;28;45168;-69
2023/03/06 03:39:56;;;;;;;;;29.50;26.25;;;;;7.45;48.59;100436.16;5017300;28;45159;-70
2023/03/06 03:42:21;;;;;;;;;39.50;33.50;;;;;7.52;48.45;100446.59;5017123;28;45174;-69
2023/03/06 03:44:47;;;;;;;;;31.50;24.50;;;;;7.54;48.65;100452.69;5016897;28;45338;-69
2023/03/06 03:47:12;;;;;;;;;32.50;27.50;;;;;7.51;48.70;100445.72;5016751;28;45234;-69
2023/03/06 03:49:37;;;;;;;;;28.25;22.75;;;;;7.53;48.54;100457.03;5017373;28;45169;-69
2023/03/06 03:52:03;;;;;;;;;31.50;27.75;;;;;7.51;48.46;100456.19;5017052;28;45499;-69
2023/03/06 03:54:28;;;;;;;;;33.00;28.50;;;;;7.49;48.53;100457.94;5016970;28;45333;-69
2023/03/06 03:56:54;;;;;;;;;36.75;29.00;;;;;7.47;48.55;100454.44;5017156;28;45420;-69
2023/03/06 03:59:19;;;;;;;;;32.75;28.50;;;;;7.45;48.56;100451.84;5016939;28;45333;-69
2023/03/06 04:01:45;;;;;;;;;32.75;31.00;;;;;7.42;48.80;100443.16;5016766;28;45494;-69
2023/03/06 04:04:10;;;;;;;;;39.75;30.25;;;;;7.40;48.60;100440.56;5016926;28;45294;-69
2023/03/06 04:06:36;;;;;;;;;36.50;31.50;;;;;7.35;48.63;100434.47;5016622;28;45293;-70
2023/03/06 04:09:03;;;;;;;;;24.25;20.00;;;;;7.38;48.65;100441.44;5016941;28;45380;-70
2023/03/06 04:11:29;;;;;;;;;35.50;28.25;;;;;7.35;48.75;100438.84;5016671;28;45176;-70
2023/03/06 04:13:54;;;;;;;;;37.25;32.75;;;;;7.36;48.57;100436.22;5015327;28;45454;-70
2023/03/06 04:16:19;;;;;;;;;32.00;28.75;;;;;7.35;48.75;100438.84;4999245;28;45402;-70
2023/03/06 04:18:45;;;;;;;;;39.50;32.75;;;;;7.35;48.61;100439.72;5015299;28;45255;-70
2023/03/06 04:21:10;;;;;;;;;44.00;36.50;;;;;7.30;48.57;100431.03;5016546;28;45202;-70
2023/03/06 04:23:35;;;;;;;;;43.75;33.00;;;;;7.27;48.66;100431.91;5012884;28;51976;-70
2023/03/06 04:26:01;;;;;;;;;37.75;32.50;;;;;7.30;48.68;100431.03;4998894;28;45219;-70
2023/03/06 04:28:26;;;;;;;;;40.25;35.75;;;;;7.29;48.70;100429.28;5016886;28;45274;-70
2023/03/06 04:30:52;;;;;;;;;29.25;27.50;;;;;7.24;48.62;100428.44;5016167;28;45554;-70
2023/03/06 04:33:17;;;;;;;;;46.00;34.50;;;;;7.27;48.70;100425.81;5015165;28;45927;-70
2023/03/06 04:35:42;;;;;;;;;43.00;35.25;;;;;7.27;48.85;100423.19;5016238;28;45190;-70
2023/03/06 04:38:08;;;;;;;;;35.75;29.50;;;;;7.25;48.92;100422.34;5016576;28;45436;-70
2023/03/06 04:40:35;;;;;;;;;37.25;34.00;;;;;7.24;48.72;100425.84;5016021;28;45487;-70
2023/03/06 04:43:01;;;;;;;;;45.50;37.00;;;;;7.25;48.73;100430.19;5017104;28;46734;-70
2023/03/06 04:45:28;;;;;;;;;38.25;31.25;;;;;7.24;48.92;100433.69;5034477;28;45452;-70
2023/03/06 04:47:55;;;;;;;;;37.00;33.50;;;;;7.22;48.74;100430.19;5019339;28;45538;-70
2023/03/06 04:50:21;;;;;;;;;32.50;24.50;;;;;7.20;48.80;100424.13;5020802;27;45226;-70
2023/03/06 04:52:46;;;;;;;;;29.00;24.75;;;;;7.20;48.90;100430.22;5019443;28;45319;-70
2023/03/06 04:55:14;;;;;;;;;36.50;30.50;;;;;7.18;48.87;100429.34;5019062;28;45337;-70
2023/03/06 04:57:42;;;;;;;;;36.75;34.75;;;;;7.15;48.92;100427.59;5019403;28;45333;-70
2023/03/06 05:00:13;;;;;;;;;38.50;34.25;;;;;7.16;48.94;100424.13;5019182;28;45533;-70
2023/03/06 05:02:38;;;;;;;;;46.75;39.00;;;;;7.13;48.76;100418.03;5019207;28;45468;-70
2023/03/06 05:05:04;;;;;;;;;47.75;38.75;;;;;7.15;48.90;100418.91;5019140;28;45337;-70
2023/03/06 05:07:29;;;;;;;;;41.25;31.25;;;;;7.13;49.02;100424.16;5017785;28;45327;-70
2023/03/06 05:09:55;;;;;;;;;39.50;32.75;;;;;7.14;49.06;100419.78;5034156;28;45526;-69
2023/03/06 05:12:20;;;;;;;;;34.75;30.75;;;;;7.13;49.14;100415.44;5019094;28;46293;-70
2023/03/06 05:14:45;;;;;;;;;35.00;32.00;;;;;7.12;48.86;100424.16;5010289;28;45310;-70
2023/03/06 05:17:11;;;;;;;;;38.00;31.00;;;;;7.10;48.95;100418.91;5009215;28;45326;-70
2023/03/06 05:19:36;;;;;;;;;37.25;30.75;;;;;7.10;48.90;100423.28;5034155;28;45483;-70
2023/03/06 05:22:02;;;;;;;;;37.00;31.75;;;;;7.09;49.00;100416.31;5018975;28;45329;-70
2023/03/06 05:24:27;;;;;;;;;35.50;33.75;;;;;7.09;48.93;100418.94;5006449;28;45335;-70
2023/03/06 05:26:52;;;;;;;;;38.00;33.00;;;;;7.05;49.16;100410.25;5008711;28;45379;-70
2023/03/06 05:29:18;;;;;;;;;28.00;22.50;;;;;7.02;49.15;100409.38;5018642;28;45270;-70
2023/03/06 05:31:44;;;;;;;;;33.50;26.75;;;;;7.06;49.17;100414.59;5017122;28;47105;-70
2023/03/06 05:34:13;;;;;;;;;39.00;31.00;;;;;7.05;49.13;100415.47;5018666;28;45310;-69
2023/03/06 05:36:39;;;;;;;;;29.75;28.25;;;;;7.03;48.98;100418.97;5019026;28;45417;-70
2023/03/06 05:39:05;;;;;;;;;44.50;36.00;;;;;7.04;49.13;100413.72;5018367;28;45469;-69
2023/03/06 05:41:30;;;;;;;;;41.25;29.75;;;;;7.01;48.99;100413.75;5018635;28;45336;-69
2023/03/06 05:43:55;;;;;;;;;40.25;33.25;;;;;6.99;49.28;100412.88;5018333;28;45369;-69
2023/03/06 05:46:21;;;;;;;;;34.25;30.00;;;;;7.00;49.15;100415.47;5018553;28;45273;-69
2023/03/06 05:48:46;;;;;;;;;40.50;32.75;;;;;6.95;49.35;100406.78;5017404;28;45334;-69
2023/03/06 05:51:12;;;;;;;;;40.25;34.50;;;;;6.99;49.34;100411.16;5018522;28;45550;-69
2023/03/06 05:53:37;;;;;;;;;43.50;31.50;;;;;7.00;49.34;100412.00;5018483;28;45386;-70
2023/03/06 05:56:07;;;;;;;;;36.75;33.50;;;;;6.99;49.33;100408.53;5017957;28;45300;-70
2023/03/06 05:58:33;;;;;;;;;39.00;34.00;;;;;6.98;49.30;100418.97;5014418;27;45565;-68
2023/03/06 06:00:59;;;;;;;;;42.50;35.25;;;;;6.94;49.28;100406.81;4998419;27;45481;-68
2023/03/06 06:03:25;;;;;;;;;47.75;33.75;;;;;6.94;49.45;100406.81;5007283;28;45378;-72
2023/03/06 06:05:51;;;;;;;;;38.50;31.00;;;;;6.96;49.27;100411.16;5012879;27;45576;-69
2023/03/06 06:08:17;;;;;;;;;42.25;36.00;;;;;6.96;49.37;100410.28;4998309;28;45456;-68
2023/03/06 06:10:42;;;;;;;;;40.00;35.75;;;;;6.93;49.46;100399.84;5008078;28;45296;-68
2023/03/06 06:13:08;;;;;;;;;36.25;33.50;;;;;6.94;49.37;100405.09;4998783;28;45321;-69
2023/03/06 06:15:33;;;;;;;;;36.75;31.25;;;;;6.96;49.35;100402.47;5000491;28;45399;-71
2023/03/06 06:17:58;;;;;;;;;48.75;37.25;;;;;6.96;49.33;100402.47;5006917;28;45458;-70
2023/03/06 06:20:24;;;;;;;;;48.00;36.50;;;;;6.97;49.32;100401.59;5006673;28;48119;-71
2023/03/06 06:22:50;;;;;;;;;36.50;32.25;;;;;6.92;49.22;100392.91;5018189;28;45165;-69
2023/03/06 06:25:16;;;;;;;;;37.25;32.00;;;;;6.92;49.51;100391.16;5014795;27;45253;-69
2023/03/06 06:27:41;;;;;;;;;38.25;32.75;;;;;6.95;49.33;100392.88;5014604;28;45277;-69
2023/03/06 06:30:10;;;;;;;;;40.75;29.50;;;;;6.91;49.57;100375.50;5017941;28;46257;-69
2023/03/06 06:32:36;;;;;;;;;44.25;33.50;;;;;6.95;49.36;100371.97;5017723;28;45264;-69
2023/03/06 06:35:02;;;;;;;;;32.00;28.50;;;;;6.94;49.26;100376.34;5008333;28;45483;-69
2023/03/06 06:37:28;;;;;;;;;36.50;27.75;;;;;6.94;49.54;100378.06;5001402;28;45378;-69
2023/03/06 06:39:53;;;;;;;;;53.00;42.50;;;;;6.89;49.50;100375.47;5007878;28;45218;-69
2023/03/06 06:42:19;;;;;;;;;39.50;32.25;;;;;6.90;49.58;100377.22;5033241;28;45266;-69
2023/03/06 06:44:44;;;;;;;;;33.25;23.50;;;;;6.96;49.46;100386.78;5017934;28;45265;-68
2023/03/06 06:47:09;;;;;;;;;37.50;27.50;;;;;6.95;49.54;100382.44;5017598;28;49263;-68
2023/03/06 06:49:35;;;;;;;;;34.50;30.00;;;;;6.92;49.56;100385.06;5017962;28;46273;-68
2023/03/06 06:52:01;;;;;;;;;33.75;27.50;;;;;6.93;49.47;100392.00;5005380;28;45250;-69
2023/03/06 06:54:26;;;;;;;;;20.25;19.25;;;;;6.91;49.45;100392.03;5017954;28;45519;-69
2023/03/06 06:56:52;;;;;;;;;38.75;31.75;;;;;6.89;49.48;100400.75;5015908;28;45516;-68
2023/03/06 06:59:18;;;;;;;;;38.00;30.00;;;;;6.88;49.59;100406.84;5010447;28;46187;-68
2023/03/06 07:01:43;;;;;;;;;40.50;33.75;;;;;6.87;49.68;100410.31;4997878;28;45427;-68
2023/03/06 07:04:11;;;;;;;;;38.25;33.00;;;;;6.85;49.69;100406.88;5008756;28;45467;-68
2023/03/06 07:06:37;;;;;;;;;39.50;31.00;;;;;6.82;49.60;100408.59;5012768;28;45544;-68
2023/03/06 07:09:03;;;;;;;;;37.50;30.75;;;;;6.85;49.52;100419.94;5002408;28;52471;-68
2023/03/06 07:11:29;;;;;;;;;43.75;30.75;;;;;6.83;49.42;100426.00;5008064;28;46561;-68
2023/03/06 07:13:54;;;;;;;;;25.50;23.50;;;;;6.83;49.44;100427.78;5016078;28;45606;-68
2023/03/06 07:16:20;;;;;;;;;44.00;33.00;;;;;6.81;49.57;100421.69;5017525;28;45254;-68
2023/03/06 07:18:45;;;;;;;;;41.75;34.25;;;;;6.81;49.60;100425.13;5017296;28;45749;-68
2023/03/06 07:21:11;;;;;;;;;39.00;33.25;;;;;6.78;49.53;100422.56;5017534;28;45311;-68
2023/03/06 07:23:38;;;;;;;;;34.75;30.50;;;;;6.81;49.55;100427.75;5016211;28;45298;-68
2023/03/06 07:26:03;;;;;;;;;43.25;34.50;;;;;6.76;49.41;100418.22;5016019;28;45469;-68
2023/03/06 07:28:29;;;;;;;;;30.75;29.25;;;;;6.78;49.74;100433.00;5017263;28;46006;-69
2023/03/06 07:30:54;;;;;;;;;34.00;29.00;;;;;6.74;49.46;100426.06;5017066;28;45344;-67
2023/03/06 07:33:19;;;;;;;;;37.25;31.00;;;;;6.73;49.61;100424.31;5017454;28;45322;-67
2023/03/06 07:35:45;;;;;;;;;40.50;33.50;;;;;6.75;49.55;100419.94;5015411;28;45553;-67
2023/03/06 07:38:10;;;;;;;;;34.00;30.75;;;;;6.75;49.64;100419.09;5017271;28;46250;-69
2023/03/06 07:40:37;;;;;;;;;33.00;27.00;;;;;6.75;49.35;100419.94;5017097;28;45318;-67
2023/03/06 07:43:03;;;;;;;;;32.75;29.25;;;;;6.70;49.57;100419.09;5032649;28;45302;-69
2023/03/06 07:45:28;;;;;;;;;32.50;26.25;;;;;6.76;49.45;100426.06;5017002;28;45489;-69
2023/03/06 07:47:53;;;;;;;;;40.25;31.25;;;;;6.73;49.44;100419.09;5016570;28;51758;-69
2023/03/06 07:50:20;;;;;;;;;35.00;29.75;;;;;6.74;49.68;100422.56;5017024;28;45241;-69
2023/03/06 07:52:45;;;;;;;;;40.25;28.00;;;;;6.74;49.73;100423.44;5015971;28;45285;-69
2023/03/06 07:55:11;;;;;;;;;31.50;26.50;;;;;6.74;49.73;100420.84;5017039;28;45409;-66
2023/03/06 07:57:37;;;;;;;;;33.50;26.00;;;;;6.75;49.71;100416.47;5016885;28;46266;-69
2023/03/06 08:00:06;;;;;;;;;31.75;27.25;;;;;6.75;49.64;100426.91;5010419;28;45320;-69
2023/03/06 08:02:32;;;;;;;;;30.50;26.25;;;;;6.75;49.45;100419.09;5007218;28;45351;-69
2023/03/06 08:04:57;;;;;;;;;21.75;20.00;;;;;6.73;49.66;100413.88;5016870;28;45331;-69
2023/03/06 08:07:22;;;;;;;;;28.25;24.50;;;;;6.70;49.54;100421.69;5016817;28;45358;-69
2023/03/06 08:09:48;;;;;;;;;33.75;27.00;;;;;6.74;49.57;100426.06;5016561;28;45407;-69
2023/03/06 08:12:14;;;;;;;;;29.75;27.00;;;;;6.72;49.83;100427.81;5001183;28;46360;-69
2023/03/06 08:14:39;;;;;;;;;31.75;26.50;;;;;6.73;49.84;100424.31;5011603;28;45319;-69
2023/03/06 08:17:04;;;;;;;;;30.00;25.75;;;;;6.77;49.63;100425.19;5016678;28;46252;-69
2023/03/06 08:19:30;;;;;;;;;31.00;27.50;;;;;6.75;49.73;100419.94;5019268;28;45264;-69
2023/03/06 08:21:55;;;;;;;;;32.75;26.75;;;;;6.80;49.70;100427.78;5019934;28;45479;-69
2023/03/06 08:24:21;;;;;;;;;25.00;20.75;;;;;6.81;49.58;100426.91;5019630;28;45226;-69
2023/03/06 08:26:46;;;;;;;;;35.50;27.75;;;;;6.82;49.79;100426.88;5019545;28;45223;-69
2023/03/06 08:29:12;;;;;;;;;18.75;17.25;;;;;6.82;49.83;100423.41;5019219;28;45249;-69
2023/03/06 08:31:40;;;;;;;;;32.00;26.25;;;;;6.83;49.80;100428.63;5019896;28;45234;-69
2023/03/06 08:34:09;;;;;;;;;31.75;25.25;;;;;6.86;49.63;100426.88;5019632;28;45650;-69
2023/03/06 08:36:35;;;;;;;;;31.00;28.25;;;;;6.83;49.83;100426.00;5019682;28;46085;-69
2023/03/06 08:39:00;;;;;;;;;36.25;30.50;;;;;6.85;49.71;100425.16;5019180;28;45161;-69
2023/03/06 08:41:26;;;;;;;;;33.25;26.00;;;;;6.86;49.68;100426.88;5019651;28;45612;-69
2023/03/06 08:43:52;;;;;;;;;34.50;28.75;;;;;6.90;49.62;100433.84;5019349;28;45433;-69
2023/03/06 08:46:19;;;;;;;;;37.25;27.50;;;;;6.93;49.59;100433.81;5019369;28;45225;-69
2023/03/06 08:48:46;;;;;;;;;26.25;21.75;;;;;6.91;49.58;100430.34;5019342;28;45302;-70
2023/03/06 08:51:12;;;;;;;;;28.75;24.25;;;;;6.95;49.58;100440.75;5019627;28;45333;-69
2023/03/06 08:53:37;;;;;;;;;31.75;25.50;;;;;6.90;49.66;100426.00;5019182;28;45483;-69
2023/03/06 08:56:03;;;;;;;;;31.50;24.00;;;;;6.96;49.72;100437.28;5018798;28;59018;-69
2023/03/06 08:58:29;;;;;;;;;30.25;25.50;;;;;7.00;49.62;100443.38;5018545;28;45496;-69
2023/03/06 09:00:55;;;;;;;;;24.75;24.00;;;;;6.99;49.87;100437.28;4998060;28;45354;-69
2023/03/06 09:03:22;;;;;;;;;30.00;24.50;;;;;7.04;49.97;100449.44;5015636;28;45355;-66
2023/03/06 09:05:47;;;;;;;;;26.00;22.50;;;;;7.05;49.86;100443.34;5019171;28;46138;-66
2023/03/06 09:08:13;;;;;;;;;32.00;29.50;;;;;7.09;50.10;100445.94;5019035;28;45322;-66
2023/03/06 09:10:38;;;;;;;;;31.75;27.75;;;;;7.13;49.73;100445.06;5016418;28;45387;-69
2023/03/06 09:13:03;;;;;;;;;32.50;27.75;;;;;7.12;49.94;100448.53;5002062;28;45433;-69
2023/03/06 09:15:28;;;;;;;;;32.25;30.00;;;;;7.13;49.95;100444.16;5018847;28;45362;-69
2023/03/06 09:17:54;;;;;;;;;31.50;22.75;;;;;7.12;49.99;100445.06;5019004;28;45255;-68
2023/03/06 09:20:20;;;;;;;;;30.00;23.00;;;;;7.18;50.01;100439.78;5019209;28;45277;-69
2023/03/06 09:22:45;;;;;;;;;34.75;27.50;;;;;7.19;50.10;100446.75;5018903;28;45394;-69
2023/03/06 09:25:12;;;;;;;;;33.00;27.00;;;;;7.20;50.11;100445.03;5018972;28;45428;-69
2023/03/06 09:27:38;;;;;;;;;32.75;26.25;;;;;7.26;50.04;100452.84;5018657;28;45401;-69
2023/03/06 09:30:04;;;;;;;;;26.25;25.75;;;;;7.26;49.96;100450.22;5017704;28;45246;-69
2023/03/06 09:32:29;;;;;;;;;35.00;27.50;;;;;7.30;50.04;100451.94;5018861;28;45571;-69
2023/03/06 09:34:55;;;;;;;;;28.50;27.50;;;;;7.36;50.31;100457.13;5018851;28;46581;-69
2023/03/06 09:37:21;;;;;;;;;24.50;22.25;;;;;7.40;50.12;100452.75;5018791;28;45335;-69
2023/03/06 09:39:46;;;;;;;;;29.75;25.50;;;;;7.38;50.22;100455.38;5034075;28;45317;-68
2023/03/06 09:42:17;;;;;;;;;33.50;28.25;;;;;7.40;50.42;100453.63;5018745;28;45575;-68
2023/03/06 09:44:49;;;;;;;;;27.25;23.75;;;;;7.39;50.62;100443.19;5018631;28;46336;-69
2023/03/06 09:47:17;;;;;;;;;38.25;31.75;;;;;7.49;50.55;100471.84;5018320;28;45535;-69
2023/03/06 09:49:47;;;;;;;;;30.50;27.00;;;;;7.54;50.30;100471.00;5018983;28;45264;-68
2023/03/06 09:52:22;;;;;;;;;26.25;24.00;;;;;7.56;50.48;100463.97;5018800;28;45293;-69
2023/03/06 09:55:09;;;;;;;;;35.50;26.50;;;;;7.60;50.56;100466.56;5018560;28;45407;-68
2023/03/06 09:57:37;;;;;;;;;39.00;30.50;;;;;7.64;50.44;100462.19;5018619;28;45318;-69
2023/03/06 10:00:15;;;;;;;;;27.00;24.50;;;;;7.71;50.48;100460.41;5004916;28;45397;-69
2023/03/06 10:03:06;;;;;;;;;28.50;24.50;;;;;7.73;50.45;100448.19;5008388;28;45433;-69
2023/03/06 10:05:41;;;;;;;;;27.75;24.50;;;;;7.83;50.30;100460.31;5017338;28;47414;-69
2023/03/06 10:08:40;;;;;;;;;24.75;21.25;;;;;7.85;50.44;100450.72;5018447;28;45510;-68
2023/03/06 10:11:09;;;;;;;;;26.75;25.50;;;;;7.95;50.63;100454.16;5000170;28;45309;-69
2023/03/06 10:13:46;;;;;;;;;38.00;30.25;;;;;7.89;50.61;100436.72;5005844;28;45509;-69
2023/03/06 10:16:29;;;;;;;;;29.00;27.25;;;;;8.02;50.54;100445.34;5018274;28;45240;-69
2023/03/06 10:19:00;;;;;;;;;34.25;26.50;;;;;8.11;50.57;100453.13;5018201;28;45333;-69
2023/03/06 10:21:47;;;;;;;;;28.00;25.00;;;;;8.12;50.70;100452.22;5018293;28;45431;-69
2023/03/06 10:24:42;;;;;;;;;33.50;27.75;;;;;8.22;50.73;100445.16;5017036;28;45543;-69
2023/03/06 10:27:34;;;;;;;;;36.25;28.50;;;;;8.29;50.63;100441.63;5008283;28;45650;-69
2023/03/06 10:30:18;;;;;;;;;31.75;27.75;;;;;8.37;50.63;100449.38;5017999;28;45173;-69
2023/03/06 10:32:59;;;;;;;;;31.50;30.50;;;;;8.45;50.50;100441.44;5018254;28;45409;-69
2023/03/06 10:35:30;;;;;;;;;26.25;23.50;;;;;8.48;50.37;100425.75;5016916;28;45316;-69
2023/03/06 10:38:17;;;;;;;;;27.75;26.00;;;;;8.64;50.35;100441.31;5018250;28;46515;-69
2023/03/06 10:40:53;;;;;;;;;31.25;26.75;;;;;8.73;50.27;100443.81;5016259;28;45937;-69
2023/03/06 10:43:21;;;;;;;;;32.00;26.25;;;;;8.79;50.20;100430.63;5018318;28;45457;-69
2023/03/06 10:45:49;;;;;;;;;27.00;24.00;;;;;8.93;50.15;100433.09;5017665;28;45454;-69
2023/03/06 10:48:19;;;;;;;;;24.25;21.50;;;;;8.99;50.06;100419.91;5017528;28;46294;-69
2023/03/06 10:50:45;;;;;;;;;30.00;22.50;;;;;9.09;49.72;100418.03;5033347;28;45545;-69
2023/03/06 10:53:27;;;;;;;;;22.00;20.00;;;;;9.22;49.91;100431.84;5016690;28;45332;-69
2023/03/06 10:55:58;;;;;;;;;36.75;30.25;;;;;9.31;49.88;100429.13;5018029;28;45239;-69
2023/03/06 10:58:27;;;;;;;;;20.75;17.00;;;;;9.44;49.41;100430.66;5017469;28;46493;-69
2023/03/06 11:01:20;;;;;;;;;27.00;22.00;;;;;9.53;49.70;100423.56;4997782;28;45300;-69
2023/03/06 11:03:46;;;;;;;;;19.75;16.75;;;;;9.63;49.57;100425.16;5001309;28;45531;-70
2023/03/06 11:06:33;;;;;;;;;15.75;14.00;;;;;9.75;49.48;100422.34;5017685;28;45199;-69
2023/03/06 11:09:22;;;;;;;;;17.75;16.00;;;;;9.85;49.27;100414.31;5017379;28;46323;-70
2023/03/06 11:11:51;;;;;;;;;18.50;16.50;;;;;9.95;48.93;100415.91;5005386;28;45316;-70
2023/03/06 11:14:23;;;;;;;;;14.50;13.25;;;;;10.04;49.07;100418.38;5010745;28;45222;-71
2023/03/06 11:16:54;;;;;;;;;18.50;15.75;;;;;10.16;48.96;100419.94;5017785;28;45206;-70
2023/03/06 11:19:27;;;;;;;;;17.50;15.50;;;;;10.25;49.12;100408.38;5017222;28;46235;-68